Mogul, Nevada
Current Conditions -  °F | °C
As of 7:55 PM on Thursday 18 Dec 2014 (Local Time) from KRNO Reporting Station
Broken Clouds Broken Clouds  
Wind Chill: 40°   Ceiling: 20000
Heat Index: 40°   Visibility: 10mi
Dew Point: 30°   Wind: 0mph
Humidity: 68%   Direction: NA
Pressure: 30.13"   Gusts: NA
Location:  39.5383°N, 119.938°W
Report Text: KRNO 190355Z 00000KT 10SM FEW085 BKN200 04/M01 A3013 RMK AO2 SLP208 T00441011
Loading
Personal Weather Stations






























Interactive Weather Map New forecast layout! Learn more

10-Day Weather Forecast

Advertisements
Track Severe Weather on mobile